sensor_id;sensor_type;location;lat;lon;timestamp;temperature;humidity
64880;HTU21D;51374;45.124;36.712;2022-07-29T00:01:55;23.10;71.03
64880;HTU21D;51374;45.124;36.712;2022-07-29T00:04:21;23.08;71.06
64880;HTU21D;51374;45.124;36.712;2022-07-29T00:06:47;23.06;71.16
64880;HTU21D;51374;45.124;36.712;2022-07-29T00:09:13;23.05;71.19
64880;HTU21D;51374;45.124;36.712;2022-07-29T00:11:40;23.03;71.27
64880;HTU21D;51374;45.124;36.712;2022-07-29T00:14:06;23.01;71.30
64880;HTU21D;51374;45.124;36.712;2022-07-29T00:16:32;23.00;71.40
64880;HTU21D;51374;45.124;36.712;2022-07-29T00:18:58;22.98;71.46
64880;HTU21D;51374;45.124;36.712;2022-07-29T00:21:24;22.99;71.52
64880;HTU21D;51374;45.124;36.712;2022-07-29T00:23:50;22.98;71.62
64880;HTU21D;51374;45.124;36.712;2022-07-29T00:26:16;22.97;71.62
64880;HTU21D;51374;45.124;36.712;2022-07-29T00:28:42;22.98;71.67
64880;HTU21D;51374;45.124;36.712;2022-07-29T00:31:08;22.97;71.68
64880;HTU21D;51374;45.124;36.712;2022-07-29T00:33:34;22.98;71.80
64880;HTU21D;51374;45.124;36.712;2022-07-29T00:36:00;22.96;71.79
64880;HTU21D;51374;45.124;36.712;2022-07-29T00:38:26;22.96;71.77
64880;HTU21D;51374;45.124;36.712;2022-07-29T00:40:52;22.93;71.83
64880;HTU21D;51374;45.124;36.712;2022-07-29T00:43:18;22.93;71.84
64880;HTU21D;51374;45.124;36.712;2022-07-29T00:45:44;22.92;71.89
64880;HTU21D;51374;45.124;36.712;2022-07-29T00:48:10;22.90;71.93
64880;HTU21D;51374;45.124;36.712;2022-07-29T00:50:36;22.87;71.94
64880;HTU21D;51374;45.124;36.712;2022-07-29T00:53:04;22.86;72.02
64880;HTU21D;51374;45.124;36.712;2022-07-29T00:55:31;22.84;72.05
64880;HTU21D;51374;45.124;36.712;2022-07-29T00:57:58;22.82;72.11
64880;HTU21D;51374;45.124;36.712;2022-07-29T01:00:26;22.81;72.19
64880;HTU21D;51374;45.124;36.712;2022-07-29T01:02:52;22.80;72.20
64880;HTU21D;51374;45.124;36.712;2022-07-29T01:05:21;22.80;72.29
64880;HTU21D;51374;45.124;36.712;2022-07-29T01:07:49;22.79;72.34
64880;HTU21D;51374;45.124;36.712;2022-07-29T01:10:18;22.78;72.37
64880;HTU21D;51374;45.124;36.712;2022-07-29T01:12:47;22.77;72.44
64880;HTU21D;51374;45.124;36.712;2022-07-29T01:15:14;22.76;72.47
64880;HTU21D;51374;45.124;36.712;2022-07-29T01:17:52;22.73;72.53
64880;HTU21D;51374;45.124;36.712;2022-07-29T01:23:16;22.75;72.76
64880;HTU21D;51374;45.124;36.712;2022-07-29T01:26:28;22.77;72.74
64880;HTU21D;51374;45.124;36.712;2022-07-29T01:32:11;22.77;72.85
64880;HTU21D;51374;45.124;36.712;2022-07-29T01:35:28;22.78;72.99
64880;HTU21D;51374;45.124;36.712;2022-07-29T01:40:02;22.77;73.00
64880;HTU21D;51374;45.124;36.712;2022-07-29T01:42:39;22.77;73.11
64880;HTU21D;51374;45.124;36.712;2022-07-29T01:45:27;22.76;73.36
64880;HTU21D;51374;45.124;36.712;2022-07-29T01:48:52;22.76;73.34
64880;HTU21D;51374;45.124;36.712;2022-07-29T01:51:07;22.76;73.35
64880;HTU21D;51374;45.124;36.712;2022-07-29T01:53:42;22.75;73.40
64880;HTU21D;51374;45.124;36.712;2022-07-29T01:56:10;22.72;73.42
64880;HTU21D;51374;45.124;36.712;2022-07-29T01:58:40;22.72;73.48
64880;HTU21D;51374;45.124;36.712;2022-07-29T02:01:09;22.71;73.55
64880;HTU21D;51374;45.124;36.712;2022-07-29T02:03:36;22.70;73.61
64880;HTU21D;51374;45.124;36.712;2022-07-29T02:06:04;22.69;73.65
64880;HTU21D;51374;45.124;36.712;2022-07-29T02:08:32;22.67;73.72
64880;HTU21D;51374;45.124;36.712;2022-07-29T02:11:00;22.65;73.78
64880;HTU21D;51374;45.124;36.712;2022-07-29T02:13:28;22.66;73.85
64880;HTU21D;51374;45.124;36.712;2022-07-29T02:15:57;22.64;73.90
64880;HTU21D;51374;45.124;36.712;2022-07-29T02:18:27;22.64;73.95
64880;HTU21D;51374;45.124;36.712;2022-07-29T02:20:57;22.64;73.99
64880;HTU21D;51374;45.124;36.712;2022-07-29T02:23:25;22.63;74.02
64880;HTU21D;51374;45.124;36.712;2022-07-29T02:25:54;22.63;74.07
64880;HTU21D;51374;45.124;36.712;2022-07-29T02:28:23;22.65;74.12
64880;HTU21D;51374;45.124;36.712;2022-07-29T02:30:52;22.64;74.18
64880;HTU21D;51374;45.124;36.712;2022-07-29T02:33:18;22.65;74.22
64880;HTU21D;51374;45.124;36.712;2022-07-29T02:35:47;22.65;74.25
64880;HTU21D;51374;45.124;36.712;2022-07-29T02:38:15;22.66;74.29
64880;HTU21D;51374;45.124;36.712;2022-07-29T02:41:10;22.66;74.38
64880;HTU21D;51374;45.124;36.712;2022-07-29T02:43:38;22.65;74.44
64880;HTU21D;51374;45.124;36.712;2022-07-29T02:46:08;22.69;74.53
64880;HTU21D;51374;45.124;36.712;2022-07-29T02:48:40;22.72;74.62
64880;HTU21D;51374;45.124;36.712;2022-07-29T02:51:12;22.78;74.76
64880;HTU21D;51374;45.124;36.712;2022-07-29T02:53:43;22.86;74.85
64880;HTU21D;51374;45.124;36.712;2022-07-29T02:56:14;22.95;74.99
64880;HTU21D;51374;45.124;36.712;2022-07-29T02:58:46;23.07;75.01
64880;HTU21D;51374;45.124;36.712;2022-07-29T03:01:21;23.20;75.05
64880;HTU21D;51374;45.124;36.712;2022-07-29T03:03:49;23.30;75.01
64880;HTU21D;51374;45.124;36.712;2022-07-29T03:06:17;23.41;74.97
64880;HTU21D;51374;45.124;36.712;2022-07-29T03:08:44;23.53;74.97
64880;HTU21D;51374;45.124;36.712;2022-07-29T03:11:11;23.68;75.02
64880;HTU21D;51374;45.124;36.712;2022-07-29T03:13:38;23.83;75.05
64880;HTU21D;51374;45.124;36.712;2022-07-29T03:16:05;23.97;75.11
64880;HTU21D;51374;45.124;36.712;2022-07-29T03:18:32;24.11;75.10
64880;HTU21D;51374;45.124;36.712;2022-07-29T03:20:58;24.23;75.07
64880;HTU21D;51374;45.124;36.712;2022-07-29T03:23:24;24.33;74.94
64880;HTU21D;51374;45.124;36.712;2022-07-29T03:25:53;24.44;74.76
64880;HTU21D;51374;45.124;36.712;2022-07-29T03:28:20;24.53;74.52
64880;HTU21D;51374;45.124;36.712;2022-07-29T03:30:46;24.59;74.29
64880;HTU21D;51374;45.124;36.712;2022-07-29T03:33:12;24.61;74.15
64880;HTU21D;51374;45.124;36.712;2022-07-29T03:35:38;24.63;73.98
64880;HTU21D;51374;45.124;36.712;2022-07-29T03:38:04;24.65;73.92
64880;HTU21D;51374;45.124;36.712;2022-07-29T03:40:37;24.65;73.89
64880;HTU21D;51374;45.124;36.712;2022-07-29T03:43:05;24.68;73.83
64880;HTU21D;51374;45.124;36.712;2022-07-29T03:45:33;24.70;73.80
64880;HTU21D;51374;45.124;36.712;2022-07-29T03:48:05;24.74;73.81
64880;HTU21D;51374;45.124;36.712;2022-07-29T03:50:33;24.79;73.80
64880;HTU21D;51374;45.124;36.712;2022-07-29T03:53:00;24.87;73.80
64880;HTU21D;51374;45.124;36.712;2022-07-29T03:55:28;24.94;73.85
64880;HTU21D;51374;45.124;36.712;2022-07-29T03:57:56;25.04;73.84
64880;HTU21D;51374;45.124;36.712;2022-07-29T04:00:24;25.13;73.82
64880;HTU21D;51374;45.124;36.712;2022-07-29T04:02:51;25.21;73.80
64880;HTU21D;51374;45.124;36.712;2022-07-29T04:05:17;25.31;73.83
64880;HTU21D;51374;45.124;36.712;2022-07-29T04:07:45;25.39;74.91
64880;HTU21D;51374;45.124;36.712;2022-07-29T04:10:11;25.46;74.37
64880;HTU21D;51374;45.124;36.712;2022-07-29T04:12:38;25.56;74.18
64880;HTU21D;51374;45.124;36.712;2022-07-29T04:15:04;25.62;74.02
64880;HTU21D;51374;45.124;36.712;2022-07-29T04:17:30;25.71;73.89
64880;HTU21D;51374;45.124;36.712;2022-07-29T04:19:56;25.80;73.90
64880;HTU21D;51374;45.124;36.712;2022-07-29T04:22:22;25.89;74.01
64880;HTU21D;51374;45.124;36.712;2022-07-29T04:24:48;25.96;73.79
64880;HTU21D;51374;45.124;36.712;2022-07-29T04:27:14;26.05;73.77
64880;HTU21D;51374;45.124;36.712;2022-07-29T04:29:40;26.15;73.65
64880;HTU21D;51374;45.124;36.712;2022-07-29T04:32:06;26.22;73.46
64880;HTU21D;51374;45.124;36.712;2022-07-29T04:34:32;26.30;73.36
64880;HTU21D;51374;45.124;36.712;2022-07-29T04:36:58;26.38;73.21
64880;HTU21D;51374;45.124;36.712;2022-07-29T04:39:24;26.47;73.03
64880;HTU21D;51374;45.124;36.712;2022-07-29T04:41:51;26.57;72.89
64880;HTU21D;51374;45.124;36.712;2022-07-29T04:44:17;26.67;72.64
64880;HTU21D;51374;45.124;36.712;2022-07-29T04:46:43;26.75;72.43
64880;HTU21D;51374;45.124;36.712;2022-07-29T04:49:09;26.84;72.22
64880;HTU21D;51374;45.124;36.712;2022-07-29T04:51:35;26.93;72.03
64880;HTU21D;51374;45.124;36.712;2022-07-29T04:54:01;27.00;71.83
64880;HTU21D;51374;45.124;36.712;2022-07-29T04:56:27;27.07;71.51
64880;HTU21D;51374;45.124;36.712;2022-07-29T04:58:53;27.13;71.32
64880;HTU21D;51374;45.124;36.712;2022-07-29T05:01:20;27.23;71.23
64880;HTU21D;51374;45.124;36.712;2022-07-29T05:03:46;27.32;71.06
64880;HTU21D;51374;45.124;36.712;2022-07-29T05:06:12;27.41;70.85
64880;HTU21D;51374;45.124;36.712;2022-07-29T05:08:38;27.51;70.66
64880;HTU21D;51374;45.124;36.712;2022-07-29T05:11:04;27.57;70.57
64880;HTU21D;51374;45.124;36.712;2022-07-29T05:13:30;27.66;70.45
64880;HTU21D;51374;45.124;36.712;2022-07-29T05:15:56;27.74;70.30
64880;HTU21D;51374;45.124;36.712;2022-07-29T05:18:24;27.84;70.08
64880;HTU21D;51374;45.124;36.712;2022-07-29T05:20:50;27.89;69.82
64880;HTU21D;51374;45.124;36.712;2022-07-29T05:23:17;27.95;69.73
64880;HTU21D;51374;45.124;36.712;2022-07-29T05:25:43;28.03;69.55
64880;HTU21D;51374;45.124;36.712;2022-07-29T05:28:09;28.10;68.78
64880;HTU21D;51374;45.124;36.712;2022-07-29T05:30:35;28.14;68.70
64880;HTU21D;51374;45.124;36.712;2022-07-29T05:33:01;28.16;68.04
64880;HTU21D;51374;45.124;36.712;2022-07-29T05:35:27;28.20;68.47
64880;HTU21D;51374;45.124;36.712;2022-07-29T05:37:53;28.23;68.47
64880;HTU21D;51374;45.124;36.712;2022-07-29T05:40:19;28.27;68.52
64880;HTU21D;51374;45.124;36.712;2022-07-29T05:42:46;28.31;68.36
64880;HTU21D;51374;45.124;36.712;2022-07-29T05:45:11;28.37;68.19
64880;HTU21D;51374;45.124;36.712;2022-07-29T05:47:37;28.41;67.79
64880;HTU21D;51374;45.124;36.712;2022-07-29T05:50:07;28.43;67.68
64880;HTU21D;51374;45.124;36.712;2022-07-29T05:52:33;28.48;67.55
64880;HTU21D;51374;45.124;36.712;2022-07-29T05:54:59;28.52;67.49
64880;HTU21D;51374;45.124;36.712;2022-07-29T05:57:28;28.56;67.43
64880;HTU21D;51374;45.124;36.712;2022-07-29T05:59:54;28.61;67.27
64880;HTU21D;51374;45.124;36.712;2022-07-29T06:02:20;28.67;67.07
64880;HTU21D;51374;45.124;36.712;2022-07-29T06:04:49;28.71;66.95
64880;HTU21D;51374;45.124;36.712;2022-07-29T06:07:24;28.80;67.00
64880;HTU21D;51374;45.124;36.712;2022-07-29T06:09:52;28.87;66.91
64880;HTU21D;51374;45.124;36.712;2022-07-29T06:12:18;28.95;66.72
64880;HTU21D;51374;45.124;36.712;2022-07-29T06:14:45;29.05;66.57
64880;HTU21D;51374;45.124;36.712;2022-07-29T06:17:11;29.06;66.44
64880;HTU21D;51374;45.124;36.712;2022-07-29T06:19:37;29.11;66.33
64880;HTU21D;51374;45.124;36.712;2022-07-29T06:22:03;29.16;66.20
64880;HTU21D;51374;45.124;36.712;2022-07-29T06:24:29;29.21;65.83
64880;HTU21D;51374;45.124;36.712;2022-07-29T06:26:56;29.26;65.73
64880;HTU21D;51374;45.124;36.712;2022-07-29T06:29:22;29.32;65.56
64880;HTU21D;51374;45.124;36.712;2022-07-29T06:31:48;29.39;65.52
64880;HTU21D;51374;45.124;36.712;2022-07-29T06:34:14;29.48;65.14
64880;HTU21D;51374;45.124;36.712;2022-07-29T06:36:40;29.52;65.16
64880;HTU21D;51374;45.124;36.712;2022-07-29T06:39:07;29.58;64.56
64880;HTU21D;51374;45.124;36.712;2022-07-29T06:41:33;29.61;63.16
64880;HTU21D;51374;45.124;36.712;2022-07-29T06:44:08;29.65;63.43
64880;HTU21D;51374;45.124;36.712;2022-07-29T06:46:34;29.71;63.40
64880;HTU21D;51374;45.124;36.712;2022-07-29T06:49:00;29.78;63.54
64880;HTU21D;51374;45.124;36.712;2022-07-29T06:51:27;29.86;63.11
64880;HTU21D;51374;45.124;36.712;2022-07-29T06:53:53;29.92;62.84
64880;HTU21D;51374;45.124;36.712;2022-07-29T06:56:19;30.00;62.97
64880;HTU21D;51374;45.124;36.712;2022-07-29T06:58:45;30.06;62.70
64880;HTU21D;51374;45.124;36.712;2022-07-29T07:01:12;30.13;62.39
64880;HTU21D;51374;45.124;36.712;2022-07-29T07:03:37;30.18;61.47
64880;HTU21D;51374;45.124;36.712;2022-07-29T07:06:03;30.20;61.84
64880;HTU21D;51374;45.124;36.712;2022-07-29T07:08:29;30.23;61.53
64880;HTU21D;51374;45.124;36.712;2022-07-29T07:10:55;30.30;61.19
64880;HTU21D;51374;45.124;36.712;2022-07-29T07:13:22;30.31;60.61
64880;HTU21D;51374;45.124;36.712;2022-07-29T07:15:48;30.32;61.00
64880;HTU21D;51374;45.124;36.712;2022-07-29T07:18:16;30.37;60.89
64880;HTU21D;51374;45.124;36.712;2022-07-29T07:20:43;30.44;61.02
64880;HTU21D;51374;45.124;36.712;2022-07-29T07:23:09;30.52;61.11
64880;HTU21D;51374;45.124;36.712;2022-07-29T07:25:35;30.65;60.90
64880;HTU21D;51374;45.124;36.712;2022-07-29T07:28:01;30.77;60.89
64880;HTU21D;51374;45.124;36.712;2022-07-29T07:30:27;30.87;60.82
64880;HTU21D;51374;45.124;36.712;2022-07-29T07:32:54;30.97;60.73
64880;HTU21D;51374;45.124;36.712;2022-07-29T07:35:21;31.02;60.18
64880;HTU21D;51374;45.124;36.712;2022-07-29T07:37:47;31.07;60.57
64880;HTU21D;51374;45.124;36.712;2022-07-29T07:40:13;31.13;60.73
64880;HTU21D;51374;45.124;36.712;2022-07-29T07:42:40;31.22;60.86
64880;HTU21D;51374;45.124;36.712;2022-07-29T07:45:07;31.28;60.95
64880;HTU21D;51374;45.124;36.712;2022-07-29T07:47:38;31.33;61.05
64880;HTU21D;51374;45.124;36.712;2022-07-29T07:50:06;31.39;61.14
64880;HTU21D;51374;45.124;36.712;2022-07-29T07:52:33;31.43;61.15
64880;HTU21D;51374;45.124;36.712;2022-07-29T07:54:59;31.52;61.04
64880;HTU21D;51374;45.124;36.712;2022-07-29T07:57:26;31.55;60.95
64880;HTU21D;51374;45.124;36.712;2022-07-29T07:59:52;31.60;60.95
64880;HTU21D;51374;45.124;36.712;2022-07-29T08:02:18;31.64;60.97
64880;HTU21D;51374;45.124;36.712;2022-07-29T08:04:44;31.65;61.04
64880;HTU21D;51374;45.124;36.712;2022-07-29T08:07:10;31.67;61.07
64880;HTU21D;51374;45.124;36.712;2022-07-29T08:09:36;31.71;61.18
64880;HTU21D;51374;45.124;36.712;2022-07-29T08:12:03;31.75;61.19
64880;HTU21D;51374;45.124;36.712;2022-07-29T08:14:30;31.81;61.20
64880;HTU21D;51374;45.124;36.712;2022-07-29T08:16:57;31.84;61.21
64880;HTU21D;51374;45.124;36.712;2022-07-29T08:19:23;31.78;61.25
64880;HTU21D;51374;45.124;36.712;2022-07-29T08:21:49;31.70;61.27
64880;HTU21D;51374;45.124;36.712;2022-07-29T08:24:15;31.59;61.36
64880;HTU21D;51374;45.124;36.712;2022-07-29T08:26:58;31.54;61.49
64880;HTU21D;51374;45.124;36.712;2022-07-29T08:29:25;31.53;61.53
64880;HTU21D;51374;45.124;36.712;2022-07-29T08:31:50;31.50;61.51
64880;HTU21D;51374;45.124;36.712;2022-07-29T08:34:16;31.51;61.55
64880;HTU21D;51374;45.124;36.712;2022-07-29T08:36:42;31.54;61.45
64880;HTU21D;51374;45.124;36.712;2022-07-29T08:39:08;31.50;61.47
64880;HTU21D;51374;45.124;36.712;2022-07-29T08:41:35;31.44;61.49
64880;HTU21D;51374;45.124;36.712;2022-07-29T08:44:01;31.42;61.54
64880;HTU21D;51374;45.124;36.712;2022-07-29T08:46:27;31.39;61.60
64880;HTU21D;51374;45.124;36.712;2022-07-29T08:48:54;31.39;61.50
64880;HTU21D;51374;45.124;36.712;2022-07-29T08:51:21;31.34;61.52
64880;HTU21D;51374;45.124;36.712;2022-07-29T08:53:49;31.34;61.53
64880;HTU21D;51374;45.124;36.712;2022-07-29T08:56:17;31.35;61.51
64880;HTU21D;51374;45.124;36.712;2022-07-29T08:58:44;31.40;61.53
64880;HTU21D;51374;45.124;36.712;2022-07-29T09:01:11;31.51;61.43
64880;HTU21D;51374;45.124;36.712;2022-07-29T09:03:39;31.61;61.36
64880;HTU21D;51374;45.124;36.712;2022-07-29T09:06:05;31.73;61.24
64880;HTU21D;51374;45.124;36.712;2022-07-29T09:08:32;31.76;61.04
64880;HTU21D;51374;45.124;36.712;2022-07-29T09:11:00;31.82;61.02
64880;HTU21D;51374;45.124;36.712;2022-07-29T09:13:26;31.88;60.93
64880;HTU21D;51374;45.124;36.712;2022-07-29T09:15:52;31.97;60.87
64880;HTU21D;51374;45.124;36.712;2022-07-29T09:18:41;32.05;60.76
64880;HTU21D;51374;45.124;36.712;2022-07-29T09:21:13;32.17;60.73
64880;HTU21D;51374;45.124;36.712;2022-07-29T09:24:13;32.22;60.61
64880;HTU21D;51374;45.124;36.712;2022-07-29T09:26:41;32.14;60.64
64880;HTU21D;51374;45.124;36.712;2022-07-29T09:29:10;31.96;60.80
64880;HTU21D;51374;45.124;36.712;2022-07-29T09:31:38;31.89;61.02
64880;HTU21D;51374;45.124;36.712;2022-07-29T09:34:05;31.80;61.09
64880;HTU21D;51374;45.124;36.712;2022-07-29T09:36:39;31.70;61.24
64880;HTU21D;51374;45.124;36.712;2022-07-29T09:39:06;31.71;61.28
64880;HTU21D;51374;45.124;36.712;2022-07-29T09:41:53;31.79;61.11
64880;HTU21D;51374;45.124;36.712;2022-07-29T09:44:21;31.85;60.99
64880;HTU21D;51374;45.124;36.712;2022-07-29T09:46:55;31.86;61.01
64880;HTU21D;51374;45.124;36.712;2022-07-29T09:49:21;31.90;61.09
64880;HTU21D;51374;45.124;36.712;2022-07-29T09:51:47;31.98;61.06
64880;HTU21D;51374;45.124;36.712;2022-07-29T09:54:26;32.04;61.09
64880;HTU21D;51374;45.124;36.712;2022-07-29T09:56:54;32.04;61.13
64880;HTU21D;51374;45.124;36.712;2022-07-29T09:59:21;32.14;61.17
64880;HTU21D;51374;45.124;36.712;2022-07-29T10:01:49;32.24;61.14
64880;HTU21D;51374;45.124;36.712;2022-07-29T10:04:16;32.35;61.12
64880;HTU21D;51374;45.124;36.712;2022-07-29T10:06:59;32.45;61.10
64880;HTU21D;51374;45.124;36.712;2022-07-29T10:09:26;32.53;61.06
64880;HTU21D;51374;45.124;36.712;2022-07-29T10:12:13;32.59;60.99
64880;HTU21D;51374;45.124;36.712;2022-07-29T10:14:40;32.68;60.93
64880;HTU21D;51374;45.124;36.712;2022-07-29T10:17:08;32.76;60.86
64880;HTU21D;51374;45.124;36.712;2022-07-29T10:19:36;32.81;60.80
64880;HTU21D;51374;45.124;36.712;2022-07-29T10:22:07;32.83;60.83
64880;HTU21D;51374;45.124;36.712;2022-07-29T10:24:35;32.87;60.86
64880;HTU21D;51374;45.124;36.712;2022-07-29T10:27:05;32.98;60.79
64880;HTU21D;51374;45.124;36.712;2022-07-29T10:29:31;33.07;60.67
64880;HTU21D;51374;45.124;36.712;2022-07-29T10:32:26;33.19;60.55
64880;HTU21D;51374;45.124;36.712;2022-07-29T10:40:22;33.48;58.06
64880;HTU21D;51374;45.124;36.712;2022-07-29T10:43:24;33.42;59.05
64880;HTU21D;51374;45.124;36.712;2022-07-29T10:45:54;33.47;59.19
64880;HTU21D;51374;45.124;36.712;2022-07-29T10:48:21;33.57;58.54
64880;HTU21D;51374;45.124;36.712;2022-07-29T10:50:58;33.64;58.35
64880;HTU21D;51374;45.124;36.712;2022-07-29T10:53:49;33.70;56.92
64880;HTU21D;51374;45.124;36.712;2022-07-29T10:56:26;33.71;56.84
64880;HTU21D;51374;45.124;36.712;2022-07-29T11:01:44;33.65;54.21
64880;HTU21D;51374;45.124;36.712;2022-07-29T11:04:10;33.61;54.86
64880;HTU21D;51374;45.124;36.712;2022-07-29T11:09:28;33.52;53.10
64880;HTU21D;51374;45.124;36.712;2022-07-29T11:11:56;33.50;53.45
64880;HTU21D;51374;45.124;36.712;2022-07-29T11:17:20;33.64;51.11
64880;HTU21D;51374;45.124;36.712;2022-07-29T11:19:46;33.64;50.89
64880;HTU21D;51374;45.124;36.712;2022-07-29T11:22:31;33.59;51.68
64880;HTU21D;51374;45.124;36.712;2022-07-29T11:25:17;33.61;52.32
64880;HTU21D;51374;45.124;36.712;2022-07-29T11:27:46;33.70;52.36
64880;HTU21D;51374;45.124;36.712;2022-07-29T11:30:12;33.75;51.53
64880;HTU21D;51374;45.124;36.712;2022-07-29T11:32:41;33.75;51.68
64880;HTU21D;51374;45.124;36.712;2022-07-29T11:35:19;33.73;48.96
64880;HTU21D;51374;45.124;36.712;2022-07-29T11:41:22;33.52;48.53
64880;HTU21D;51374;45.124;36.712;2022-07-29T11:43:53;33.45;49.15
64880;HTU21D;51374;45.124;36.712;2022-07-29T11:49:09;33.41;49.01
64880;HTU21D;51374;45.124;36.712;2022-07-29T11:51:38;33.45;49.55
64880;HTU21D;51374;45.124;36.712;2022-07-29T11:54:05;33.49;49.66
64880;HTU21D;51374;45.124;36.712;2022-07-29T11:56:34;33.55;49.48
64880;HTU21D;51374;45.124;36.712;2022-07-29T11:59:06;33.57;49.62
64880;HTU21D;51374;45.124;36.712;2022-07-29T12:01:32;33.61;49.77
64880;HTU21D;51374;45.124;36.712;2022-07-29T12:04:05;33.70;48.18
64880;HTU21D;51374;45.124;36.712;2022-07-29T12:06:33;33.70;48.30
64880;HTU21D;51374;45.124;36.712;2022-07-29T12:09:00;33.61;48.84
64880;HTU21D;51374;45.124;36.712;2022-07-29T12:11:26;33.59;49.16
64880;HTU21D;51374;45.124;36.712;2022-07-29T12:13:52;33.52;48.46
64880;HTU21D;51374;45.124;36.712;2022-07-29T12:16:20;33.48;48.93
64880;HTU21D;51374;45.124;36.712;2022-07-29T12:18:59;33.47;48.53
64880;HTU21D;51374;45.124;36.712;2022-07-29T12:21:26;33.47;49.27
64880;HTU21D;51374;45.124;36.712;2022-07-29T12:23:53;33.56;49.37
64880;HTU21D;51374;45.124;36.712;2022-07-29T12:26:22;33.62;49.12
64880;HTU21D;51374;45.124;36.712;2022-07-29T12:28:48;33.63;48.57
64880;HTU21D;51374;45.124;36.712;2022-07-29T12:31:15;33.63;48.77
64880;HTU21D;51374;45.124;36.712;2022-07-29T12:33:41;33.65;48.77
64880;HTU21D;51374;45.124;36.712;2022-07-29T12:36:08;33.63;49.11
64880;HTU21D;51374;45.124;36.712;2022-07-29T12:38:35;33.65;49.06
64880;HTU21D;51374;45.124;36.712;2022-07-29T12:41:01;33.68;49.23
64880;HTU21D;51374;45.124;36.712;2022-07-29T12:43:28;33.73;48.83
64880;HTU21D;51374;45.124;36.712;2022-07-29T12:45:56;33.65;48.12
64880;HTU21D;51374;45.124;36.712;2022-07-29T12:48:34;33.55;48.47
64880;HTU21D;51374;45.124;36.712;2022-07-29T12:51:02;33.53;48.61
64880;HTU21D;51374;45.124;36.712;2022-07-29T12:53:29;33.51;48.38
64880;HTU21D;51374;45.124;36.712;2022-07-29T12:55:56;33.50;48.20
64880;HTU21D;51374;45.124;36.712;2022-07-29T12:58:33;33.38;48.00
64880;HTU21D;51374;45.124;36.712;2022-07-29T13:01:06;33.27;48.08
64880;HTU21D;51374;45.124;36.712;2022-07-29T13:03:53;33.21;48.08
64880;HTU21D;51374;45.124;36.712;2022-07-29T13:09:11;33.21;48.31
64880;HTU21D;51374;45.124;36.712;2022-07-29T13:11:42;33.21;48.63
64880;HTU21D;51374;45.124;36.712;2022-07-29T13:14:12;33.15;48.22
64880;HTU21D;51374;45.124;36.712;2022-07-29T13:19:45;33.13;48.31
64880;HTU21D;51374;45.124;36.712;2022-07-29T13:22:13;33.13;48.79
64880;HTU21D;51374;45.124;36.712;2022-07-29T13:24:48;33.19;47.47
64880;HTU21D;51374;45.124;36.712;2022-07-29T13:27:16;33.13;48.52
64880;HTU21D;51374;45.124;36.712;2022-07-29T13:29:42;33.06;48.61
64880;HTU21D;51374;45.124;36.712;2022-07-29T13:32:08;33.01;48.83
64880;HTU21D;51374;45.124;36.712;2022-07-29T13:34:34;32.98;48.99
64880;HTU21D;51374;45.124;36.712;2022-07-29T13:37:00;32.93;48.83
64880;HTU21D;51374;45.124;36.712;2022-07-29T13:39:26;32.90;49.11
64880;HTU21D;51374;45.124;36.712;2022-07-29T13:41:52;32.84;49.18
64880;HTU21D;51374;45.124;36.712;2022-07-29T13:44:18;32.81;49.18
64880;HTU21D;51374;45.124;36.712;2022-07-29T13:46:44;32.75;49.42
64880;HTU21D;51374;45.124;36.712;2022-07-29T13:49:10;32.67;49.55
64880;HTU21D;51374;45.124;36.712;2022-07-29T13:51:37;32.67;49.66
64880;HTU21D;51374;45.124;36.712;2022-07-29T13:54:03;32.70;49.73
64880;HTU21D;51374;45.124;36.712;2022-07-29T13:56:30;32.73;49.93
64880;HTU21D;51374;45.124;36.712;2022-07-29T13:58:55;32.74;49.94
64880;HTU21D;51374;45.124;36.712;2022-07-29T14:01:23;32.74;49.94
64880;HTU21D;51374;45.124;36.712;2022-07-29T14:03:49;32.71;50.09
64880;HTU21D;51374;45.124;36.712;2022-07-29T14:06:15;32.66;50.18
64880;HTU21D;51374;45.124;36.712;2022-07-29T14:08:41;32.60;50.50
64880;HTU21D;51374;45.124;36.712;2022-07-29T14:11:07;32.57;50.55
64880;HTU21D;51374;45.124;36.712;2022-07-29T14:13:33;32.50;50.59
64880;HTU21D;51374;45.124;36.712;2022-07-29T14:15:59;32.42;50.85
64880;HTU21D;51374;45.124;36.712;2022-07-29T14:18:28;32.38;51.11
64880;HTU21D;51374;45.124;36.712;2022-07-29T14:20:54;32.37;51.31
64880;HTU21D;51374;45.124;36.712;2022-07-29T14:23:20;32.37;51.50
64880;HTU21D;51374;45.124;36.712;2022-07-29T14:25:46;32.34;51.66
64880;HTU21D;51374;45.124;36.712;2022-07-29T14:28:12;32.33;51.87
64880;HTU21D;51374;45.124;36.712;2022-07-29T14:30:38;32.32;52.04
64880;HTU21D;51374;45.124;36.712;2022-07-29T14:33:05;32.25;52.27
64880;HTU21D;51374;45.124;36.712;2022-07-29T14:35:31;32.17;52.69
64880;HTU21D;51374;45.124;36.712;2022-07-29T14:37:57;32.02;52.88
64880;HTU21D;51374;45.124;36.712;2022-07-29T14:40:29;31.95;53.33
64880;HTU21D;51374;45.124;36.712;2022-07-29T14:42:55;31.90;53.39
64880;HTU21D;51374;45.124;36.712;2022-07-29T14:45:21;31.81;53.52
64880;HTU21D;51374;45.124;36.712;2022-07-29T14:47:47;31.68;53.68
64880;HTU21D;51374;45.124;36.712;2022-07-29T14:50:14;31.57;53.99
64880;HTU21D;51374;45.124;36.712;2022-07-29T14:52:40;31.46;54.17
64880;HTU21D;51374;45.124;36.712;2022-07-29T14:55:07;31.40;54.45
64880;HTU21D;51374;45.124;36.712;2022-07-29T14:57:33;31.33;54.88
64880;HTU21D;51374;45.124;36.712;2022-07-29T14:59:59;31.24;55.09
64880;HTU21D;51374;45.124;36.712;2022-07-29T15:02:25;31.19;56.06
64880;HTU21D;51374;45.124;36.712;2022-07-29T15:04:51;31.11;55.71
64880;HTU21D;51374;45.124;36.712;2022-07-29T15:07:24;31.08;56.19
64880;HTU21D;51374;45.124;36.712;2022-07-29T15:09:51;31.05;56.10
64880;HTU21D;51374;45.124;36.712;2022-07-29T15:12:18;31.05;56.39
64880;HTU21D;51374;45.124;36.712;2022-07-29T15:14:47;31.04;56.57
64880;HTU21D;51374;45.124;36.712;2022-07-29T15:17:33;31.02;57.06
64880;HTU21D;51374;45.124;36.712;2022-07-29T15:19:59;30.99;57.12
64880;HTU21D;51374;45.124;36.712;2022-07-29T15:22:25;31.15;57.10
64880;HTU21D;51374;45.124;36.712;2022-07-29T15:24:51;31.42;56.05
64880;HTU21D;51374;45.124;36.712;2022-07-29T15:27:17;31.79;55.28
64880;HTU21D;51374;45.124;36.712;2022-07-29T15:29:44;32.05;54.81
64880;HTU21D;51374;45.124;36.712;2022-07-29T15:32:10;32.30;54.26
64880;HTU21D;51374;45.124;36.712;2022-07-29T15:34:37;32.38;54.11
64880;HTU21D;51374;45.124;36.712;2022-07-29T15:37:04;32.50;53.89
64880;HTU21D;51374;45.124;36.712;2022-07-29T15:39:30;32.63;53.69
64880;HTU21D;51374;45.124;36.712;2022-07-29T15:41:56;32.60;53.97
64880;HTU21D;51374;45.124;36.712;2022-07-29T15:44:22;32.61;53.99
64880;HTU21D;51374;45.124;36.712;2022-07-29T15:46:48;32.69;53.89